FYKT

Keetmanshoop Airport

Keetmanshoop, Namibia
METAR FYKT 181900Z AUTO 22008KT //// // ////// 27/M03 Q1014
Observed Flight Rules
Dec-18 @ 19:00 UTC (2 hours ago)
Wind
220° at 8 knots
Temperatures Readings
Current 27°C / 81°F
Dewpoint -3°C / 27°F
Humidity 14%
Altimeter 29.94" Hg
Pressure 1014 hPa
Elevation 1061
METAR FYKT 181900Z AUTO 22008KT //// // ////// 27/M03 Q1014
Observed Flight Rules
Dec-18 @ 19:00 UTC
(2 hours ago)
Wind
220° at 8 knots
Temperature Dewpoint
27°C / 81°F -3°C / 27°F
Humidity Altimeter Pressure
14% 29.94" Hg 1014 hPa